Time;durP1;ratioP1;P1;durP2;ratioP2;P2;SDS_P1;SDS_P2;PMS_P1;PMS_P2;Temp;Humidity;BMP_temperature;BMP_pressure;BME280_temperature;BME280_humidity;BME280_pressure;Samples;Min_cycle;Max_cycle;Signal;HPM_P1;HPM_P2
2022/07/13 00:07:53;;;;;;;2.80;1.20;;;;;;;22.83;74.77;101903.53;20851340;28;20056;-60
2022/07/13 00:18:15;;;;;;;2.47;1.13;;;;;;;22.79;75.36;101886.19;20855678;28;20425;-59
2022/07/13 00:28:36;;;;;;;1.38;1.10;;;;;;;22.73;75.52;101876.16;20854240;28;20049;-60
2022/07/13 00:38:58;;;;;;;1.70;0.80;;;;;;;22.66;75.73;101859.13;20851589;28;20040;-60
2022/07/13 00:49:22;;;;;;;4.72;1.50;;;;;;;22.57;76.14;101836.09;20839586;28;20041;-60
2022/07/13 00:59:44;;;;;;;2.38;1.27;;;;;;;22.56;76.29;101826.44;20849535;28;20495;-60
2022/07/13 01:10:08;;;;;;;4.53;1.30;;;;;;;22.51;76.40;101822.56;20849991;28;20049;-60
2022/07/13 01:20:30;;;;;;;2.30;1.80;;;;;;;22.44;75.45;101822.34;20836425;28;20054;-60
2022/07/13 01:30:51;;;;;;;3.13;1.70;;;;;;;22.42;76.08;101807.53;20839432;28;20445;-60
2022/07/13 01:41:14;;;;;;;3.60;1.90;;;;;;;22.34;75.93;101803.97;20835953;28;20132;-60
2022/07/13 01:51:36;;;;;;;7.13;1.98;;;;;;;22.31;76.00;101801.56;20837118;28;20049;-60
2022/07/13 02:01:57;;;;;;;2.33;2.13;;;;;;;22.22;77.06;101778.56;20826337;28;20401;-60
2022/07/13 02:12:19;;;;;;;2.50;2.17;;;;;;;22.19;76.05;101773.53;20838397;28;20061;-60
2022/07/13 02:22:45;;;;;;;2.05;1.73;;;;;;;22.20;75.86;101759.28;20831084;28;20045;-61
2022/07/13 02:33:07;;;;;;;3.63;1.92;;;;;;;22.14;76.66;101749.25;20838222;28;20512;-60
2022/07/13 02:43:28;;;;;;;4.15;1.83;;;;;;;22.11;76.67;101728.31;20834073;28;20639;-60
2022/07/13 02:53:50;;;;;;;2.00;1.80;;;;;;;22.06;77.33;101727.91;20829373;28;20055;-60
2022/07/13 03:04:11;;;;;;;6.90;2.20;;;;;;;22.08;76.11;101731.25;20828360;28;20056;-60
2022/07/13 03:14:33;;;;;;;8.45;2.17;;;;;;;22.00;77.27;101729.34;20828423;28;20048;-60
2022/07/13 03:24:54;;;;;;;2.60;1.70;;;;;;;21.97;77.24;101710.25;20846560;28;20045;-60
2022/07/13 03:35:16;;;;;;;5.68;1.80;;;;;;;21.95;77.77;101701.59;20853047;28;20049;-60
2022/07/13 03:45:38;;;;;;;6.13;3.22;;;;;;;21.85;77.12;101666.28;20854470;28;20044;-60
2022/07/13 03:55:59;;;;;;;5.15;1.95;;;;;;;21.90;76.00;101714.47;20848521;28;20045;-60
2022/07/13 04:06:21;;;;;;;3.03;2.50;;;;;;;21.88;77.20;101684.56;20848980;28;20129;-60
2022/07/13 04:16:42;;;;;;;2.58;2.30;;;;;;;21.96;76.41;101671.38;20842172;28;20045;-60
2022/07/13 04:27:04;;;;;;;3.22;2.60;;;;;;;22.00;75.68;101662.09;20847889;28;20045;-60
2022/07/13 04:37:26;;;;;;;5.03;2.47;;;;;;;22.10;75.15;101653.06;20846505;28;20045;-60
2022/07/13 04:47:48;;;;;;;2.83;2.63;;;;;;;22.18;75.69;101650.50;20847338;28;20410;-60
2022/07/13 04:58:10;;;;;;;4.60;2.90;;;;;;;22.26;74.28;101655.88;20851886;28;20048;-60
2022/07/13 05:08:32;;;;;;;5.25;3.10;;;;;;;22.33;74.35;101653.47;20851097;28;20096;-61
2022/07/13 05:18:53;;;;;;;3.67;2.90;;;;;;;22.39;74.08;101638.59;20847367;28;20044;-60
2022/07/13 05:29:15;;;;;;;4.30;3.00;;;;;;;22.48;74.12;101637.66;20849769;28;20038;-60
2022/07/13 05:39:36;;;;;;;5.40;3.15;;;;;;;22.55;73.74;101637.88;20850589;28;20116;-60
2022/07/13 05:49:58;;;;;;;6.43;3.00;;;;;;;22.66;73.23;101641.13;20848988;28;20052;-60
2022/07/13 06:00:20;;;;;;;4.03;3.05;;;;;;;22.76;72.35;101625.88;20847413;28;20057;-60
2022/07/13 06:10:41;;;;;;;5.65;2.90;;;;;;;22.81;72.89;101618.28;20833600;28;20054;-60
2022/07/13 06:21:04;;;;;;;3.40;2.33;;;;;;;22.95;73.56;101609.69;20828718;28;20573;-61
2022/07/13 06:31:25;;;;;;;6.30;3.13;;;;;;;23.01;72.10;101609.03;20817535;28;20037;-59
2022/07/13 06:41:47;;;;;;;3.65;2.33;;;;;;;23.16;71.61;101604.00;20842717;28;20052;-60
2022/07/13 06:52:09;;;;;;;4.18;2.30;;;;;;;23.31;71.25;101605.06;20840495;28;20719;-61
2022/07/13 07:02:30;;;;;;;8.35;2.75;;;;;;;23.39;70.73;101612.06;20849145;28;20045;-61
2022/07/13 07:12:52;;;;;;;10.10;2.78;;;;;;;23.45;70.33;101613.22;20843931;28;20049;-61
2022/07/13 07:23:15;;;;;;;3.85;2.30;;;;;;;23.58;69.62;101608.28;20833710;28;20054;-61
2022/07/13 07:33:36;;;;;;;3.47;2.00;;;;;;;23.76;69.76;101601.88;20830808;28;20390;-61
2022/07/13 07:43:59;;;;;;;4.18;2.25;;;;;;;23.98;68.60;101590.53;20833915;28;20045;-60
2022/07/13 07:54:20;;;;;;;5.05;1.60;;;;;;;24.25;67.69;101592.06;20843701;28;20099;-60
2022/07/13 08:04:42;;;;;;;3.55;2.17;;;;;;;24.45;65.82;101591.53;20836593;28;20045;-61
2022/07/13 08:15:09;;;;;;;6.90;2.20;;;;;;;24.67;65.82;101588.19;20841190;28;20220;-60
2022/07/13 08:25:30;;;;;;;5.70;2.90;;;;;;;24.88;64.78;101585.78;20838048;28;20399;-61
2022/07/13 08:46:33;;;;;;;4.57;3.60;;;;;;;25.31;64.03;101562.09;20836407;28;20454;-60
2022/07/13 08:56:54;;;;;;;5.10;3.40;;;;;;;25.54;64.71;101557.59;20846644;28;20061;-60
2022/07/13 09:07:16;;;;;;;9.57;4.20;;;;;;;25.75;63.94;101560.47;20839298;28;20386;-60
2022/07/13 09:17:43;;;;;;;7.55;3.10;;;;;;;25.90;63.84;101540.81;20816248;28;20049;-60
2022/07/13 09:28:06;;;;;;;;;;;;;;;26.22;64.75;101542.34;20829519;28;20045;-60
2022/07/13 09:38:36;;;;;;;;;;;;;;;26.46;63.86;101537.63;20831237;28;19963;-60
2022/07/13 09:48:58;;;;;;;;;;;;;;;26.75;58.02;101543.81;20826698;28;19928;-60
2022/07/13 09:59:19;;;;;;;;;;;;;;;27.08;62.01;101552.28;20829958;28;19943;-60
2022/07/13 10:09:42;;;;;;;4.30;2.55;;;;;;;27.40;62.36;101558.03;20826800;28;19943;-61
2022/07/13 10:20:11;;;;;;;3.28;2.85;;;;;;;27.49;61.25;101579.16;20830163;28;20044;-60
2022/07/13 10:30:33;;;;;;;4.53;2.37;;;;;;;27.62;61.40;101578.47;20832712;28;20045;-60
2022/07/13 10:41:18;;;;;;;4.18;2.30;;;;;;;27.99;57.40;101578.25;20821073;28;20053;-60
2022/07/13 10:51:39;;;;;;;3.03;1.98;;;;;;;28.21;61.65;101574.53;20817278;28;20521;-59
2022/07/13 11:02:01;;;;;;;6.22;2.60;;;;;;;28.44;61.52;101575.97;20824042;28;20055;-60
2022/07/13 11:12:23;;;;;;;9.40;3.22;;;;;;;28.58;61.37;101573.16;20822162;28;20099;-60
2022/07/13 11:33:48;;;;;;;2.78;1.70;;;;;;;29.34;54.12;101585.53;20820660;28;20045;-61
2022/07/13 11:44:11;;;;;;;2.33;1.55;;;;;;;29.56;56.25;101575.31;20840264;28;20042;-61
2022/07/13 11:54:33;;;;;;;1.70;1.20;;;;;;;29.62;57.18;101589.81;20831653;28;20049;-60
2022/07/13 12:05:00;;;;;;;5.88;1.20;;;;;;;29.66;53.25;101605.31;20832304;28;20077;-60
2022/07/13 12:15:22;;;;;;;1.50;1.00;;;;;;;29.85;51.08;101606.38;20838828;28;20136;-60
2022/07/13 12:25:44;;;;;;;1.88;0.93;;;;;;;29.49;58.97;101606.72;20836704;28;20042;-60
2022/07/13 12:36:06;;;;;;;1.65;1.05;;;;;;;29.18;55.92;101591.31;20834771;28;20528;-61
2022/07/13 12:46:44;;;;;;;3.22;1.10;;;;;;;29.16;48.15;101572.66;20828627;28;20056;-60
2022/07/13 12:57:10;;;;;;;1.17;1.10;;;;;;;29.03;50.36;101601.34;20840507;28;20136;-60
2022/07/13 13:07:33;;;;;;;2.92;1.00;;;;;;;28.83;54.38;101608.47;20812495;28;20049;-60
2022/07/13 13:17:54;;;;;;;1.92;0.98;;;;;;;28.82;54.12;101618.34;20846167;28;20357;-60
2022/07/13 13:28:16;;;;;;;8.27;0.90;;;;;;;28.71;55.35;101618.06;20824939;28;20075;-63
2022/07/13 13:38:38;;;;;;;4.07;1.02;;;;;;;25.98;63.06;101620.91;20834341;28;20132;-60
2022/07/13 13:49:05;;;;;;;;;;;;;;;26.50;60.62;101622.66;20836421;28;20049;-61
2022/07/13 13:59:27;;;;;;;;;;;;;;;26.85;57.52;101621.97;20836359;28;19921;-60
2022/07/13 14:09:48;;;;;;;;;;;;;;;27.23;58.12;101623.56;20848982;28;19994;-61
2022/07/13 14:20:10;;;;;;;;;;;;;;;27.43;57.72;101616.59;20845542;28;19927;-61
2022/07/13 14:30:42;;;;;;;;;;;;;;;27.23;60.04;101628.91;20835264;28;20267;-61
2022/07/13 14:41:04;;;;;;;;;;;;;;;27.12;61.32;101628.56;20825371;28;19925;-62
2022/07/13 14:51:25;;;;;;;;;;;;;;;27.23;60.40;101631.59;20826949;28;19929;-61
2022/07/13 15:01:48;;;;;;;;;;;;;;;27.06;61.53;101631.97;20809016;28;20308;-60
2022/07/13 15:12:10;;;;;;;;;;;;;;;26.89;60.74;101647.38;20812972;28;20363;-62
2022/07/13 15:22:31;;;;;;;;;;;;;;;26.80;62.32;101648.47;20829638;28;19921;-61
2022/07/13 15:32:53;;;;;;;;;;;;;;;26.72;62.56;101653.91;20816924;28;19921;-61
2022/07/13 15:43:14;;;;;;;;;;;;;;;26.44;62.59;101655.53;20802983;28;19929;-62
2022/07/13 15:53:36;;;;;;;;;;;;;;;26.41;62.59;101671.06;20817257;28;19929;-61
2022/07/13 16:03:58;;;;;;;;;;;;;;;26.43;62.59;101690.44;20824638;28;20388;-61
2022/07/13 16:14:20;;;;;;;;;;;;;;;26.68;61.24;101686.56;20820891;28;19978;-62
2022/07/13 16:24:41;;;;;;;;;;;;;;;26.87;61.10;101704.75;20808263;28;19925;-60
2022/07/13 16:35:03;;;;;;;;;;;;;;;27.36;60.88;101709.47;20823496;28;19957;-61
2022/07/13 16:45:25;;;;;;;;;;;;;;;27.31;61.30;101711.00;20824690;28;19932;-62
2022/07/13 16:55:47;;;;;;;;;;;;;;;27.51;59.38;101720.97;20811881;28;19932;-61
2022/07/13 17:06:09;;;;;;;;;;;;;;;26.83;61.12;101728.41;20844645;28;19925;-61
2022/07/13 17:16:30;;;;;;;;;;;;;;;26.33;63.72;101739.84;20838021;28;19925;-60
2022/07/13 17:26:52;;;;;;;;;;;;;;;25.94;65.59;101747.94;20839493;28;19931;-61
2022/07/13 17:37:14;;;;;;;;;;;;;;;25.91;63.72;101761.66;20835941;28;19944;-61
2022/07/13 17:47:35;;;;;;;;;;;;;;;25.49;65.42;101761.13;20824237;28;19936;-62
2022/07/13 17:57:57;;;;;;;;;;;;;;;25.01;63.87;101763.06;20823996;28;19933;-61
2022/07/13 18:08:19;;;;;;;;;;;;;;;24.38;66.41;101770.00;20819504;28;19960;-61
2022/07/13 18:18:40;;;;;;;;;;;;;;;24.04;65.61;101778.25;20816048;28;19935;-62
2022/07/13 18:29:02;;;;;;;;;;;;;;;23.90;67.02;101794.84;20807259;28;20310;-61
2022/07/13 18:39:23;;;;;;;;;;;;;;;23.22;66.94;101793.13;20815360;28;19925;-61
2022/07/13 18:49:45;;;;;;;;;;;;;;;22.86;67.77;101809.28;20806277;28;19929;-62
2022/07/13 19:00:07;;;;;;;;;;;;;;;22.63;67.03;101806.25;20814659;28;19939;-60
2022/07/13 19:10:30;;;;;;;;;;;;;;;22.43;67.23;101802.06;20810390;28;19925;-62
2022/07/13 19:20:52;;;;;;;;;;;;;;;22.22;66.76;101826.38;20807635;28;19921;-61
2022/07/13 19:31:14;;;;;;;;;;;;;;;21.86;67.68;101820.16;20810848;28;19924;-61
2022/07/13 19:41:35;;;;;;;;;;;;;;;21.59;67.55;101835.19;20813449;28;19929;-61
2022/07/13 19:51:56;;;;;;;;;;;;;;;21.36;67.73;101836.50;20816413;28;19930;-61
2022/07/13 20:02:19;;;;;;;10.75;1.88;;;;;;;21.24;67.35;101850.06;20813324;28;20397;-61
2022/07/13 20:12:41;;;;;;;15.05;2.30;;;;;;;20.97;67.55;101856.06;20828128;28;20061;-61
2022/07/13 20:23:03;;;;;;;10.02;2.15;;;;;;;20.81;68.02;101854.97;20825952;28;20049;-61
2022/07/13 20:33:24;;;;;;;;;;;;;;;20.42;68.85;101869.94;20840067;28;20049;-61
2022/07/13 20:43:46;;;;;;;;;;;;;;;20.45;68.66;101875.00;20846818;28;19935;-61
2022/07/13 20:54:08;;;;;;;;;;;;;;;20.29;68.89;101883.59;20842021;28;20377;-61
2022/07/13 21:04:29;;;;;;;;;;;;;;;19.97;69.50;101888.19;20846197;28;19929;-60
2022/07/13 21:14:51;;;;;;;;;;;;;;;19.81;69.51;101882.50;20829309;28;19921;-61
2022/07/13 21:25:58;;;;;;;;;;;;;;;19.63;69.98;101894.69;20843833;28;19927;-60
2022/07/13 21:35:56;;;;;;;;;;;;;;;19.58;69.75;101896.88;20835765;28;19928;-61
2022/07/13 21:46:17;;;;;;;18.60;2.08;;;;;;;19.38;70.25;101894.25;20837555;28;19925;-61
2022/07/13 21:56:39;;;;;;;12.88;2.25;;;;;;;19.14;70.52;101896.31;20837502;28;20395;-61
2022/07/13 22:07:19;;;;;;;15.15;2.10;;;;;;;19.02;71.41;101886.69;20842842;28;20042;-60
2022/07/13 22:18:19;;;;;;;9.43;1.83;;;;;;;18.79;71.91;101875.38;20830082;28;20135;-61
2022/07/13 22:29:18;;;;;;;10.60;1.95;;;;;;;18.81;72.58;101865.53;20838173;28;20037;-61
2022/07/13 22:40:17;;;;;;;12.80;1.85;;;;;;;18.59;72.85;101873.53;20823596;28;20077;-61
2022/07/13 22:51:16;;;;;;;10.32;1.90;;;;;;;18.40;73.41;101862.78;20805281;28;20042;-61
2022/07/13 23:02:16;;;;;;;12.50;1.83;;;;;;;18.30;74.00;101860.16;20809890;28;20041;-61
2022/07/13 23:13:15;;;;;;;9.35;1.70;;;;;;;18.29;73.81;101866.41;20823107;28;20038;-61
2022/07/13 23:24:14;;;;;;;13.25;1.80;;;;;;;18.14;73.79;101865.78;20817061;28;20484;-61
2022/07/13 23:34:40;;;;;;;9.50;1.55;;;;;;;17.98;73.16;101864.47;20835050;28;20049;-61
2022/07/13 23:45:03;;;;;;;13.05;1.70;;;;;;;17.73;73.92;101872.63;20835610;28;20049;-61
2022/07/13 23:55:24;;;;;;;8.73;1.92;;;;;;;17.74;73.66;101879.59;20855730;28;20051;-61
